sensor_id;sensor_type;location;lat;lon;timestamp;P1;durP1;ratioP1;P2;durP2;ratioP2
44248;SDS011;29923;48.718;9.272;2023-04-03T00:02:10;5.05;;;2.92;;
44248;SDS011;29923;48.718;9.272;2023-04-03T00:04:35;4.22;;;2.78;;
44248;SDS011;29923;48.718;9.272;2023-04-03T00:07:01;9.45;;;3.35;;
44248;SDS011;29923;48.718;9.272;2023-04-03T00:09:26;4.07;;;2.33;;
44248;SDS011;29923;48.718;9.272;2023-04-03T00:11:52;5.45;;;2.97;;
44248;SDS011;29923;48.718;9.272;2023-04-03T00:14:17;4.50;;;2.70;;
44248;SDS011;29923;48.718;9.272;2023-04-03T00:16:42;6.70;;;3.17;;
44248;SDS011;29923;48.718;9.272;2023-04-03T00:19:08;4.63;;;2.75;;
44248;SDS011;29923;48.718;9.272;2023-04-03T00:21:33;3.60;;;2.50;;
44248;SDS011;29923;48.718;9.272;2023-04-03T00:23:58;3.08;;;2.65;;
44248;SDS011;29923;48.718;9.272;2023-04-03T00:26:24;6.22;;;3.42;;
44248;SDS011;29923;48.718;9.272;2023-04-03T00:28:49;6.15;;;2.90;;
44248;SDS011;29923;48.718;9.272;2023-04-03T00:31:15;4.63;;;2.55;;
44248;SDS011;29923;48.718;9.272;2023-04-03T00:33:41;5.40;;;2.90;;
44248;SDS011;29923;48.718;9.272;2023-04-03T00:36:07;5.40;;;3.08;;
44248;SDS011;29923;48.718;9.272;2023-04-03T00:38:34;6.13;;;2.90;;
44248;SDS011;29923;48.718;9.272;2023-04-03T00:40:59;4.80;;;2.85;;
44248;SDS011;29923;48.718;9.272;2023-04-03T00:43:25;5.90;;;3.30;;
44248;SDS011;29923;48.718;9.272;2023-04-03T00:45:52;4.82;;;2.75;;
44248;SDS011;29923;48.718;9.272;2023-04-03T00:50:58;8.00;;;2.60;;
44248;SDS011;29923;48.718;9.272;2023-04-03T00:53:26;7.18;;;3.17;;
44248;SDS011;29923;48.718;9.272;2023-04-03T00:55:54;4.80;;;2.90;;
44248;SDS011;29923;48.718;9.272;2023-04-03T00:58:20;4.00;;;3.00;;
44248;SDS011;29923;48.718;9.272;2023-04-03T01:00:49;4.00;;;2.70;;
44248;SDS011;29923;48.718;9.272;2023-04-03T01:03:18;9.73;;;3.13;;
44248;SDS011;29923;48.718;9.272;2023-04-03T01:05:44;4.90;;;2.75;;
44248;SDS011;29923;48.718;9.272;2023-04-03T01:08:09;6.55;;;2.80;;
44248;SDS011;29923;48.718;9.272;2023-04-03T01:10:35;5.78;;;2.60;;
44248;SDS011;29923;48.718;9.272;2023-04-03T01:13:00;5.40;;;2.67;;
44248;SDS011;29923;48.718;9.272;2023-04-03T01:15:26;7.57;;;3.10;;
44248;SDS011;29923;48.718;9.272;2023-04-03T01:17:56;4.25;;;2.67;;
44248;SDS011;29923;48.718;9.272;2023-04-03T01:25:27;5.95;;;2.75;;
44248;SDS011;29923;48.718;9.272;2023-04-03T01:27:53;3.70;;;2.60;;
44248;SDS011;29923;48.718;9.272;2023-04-03T01:30:19;4.60;;;2.90;;
44248;SDS011;29923;48.718;9.272;2023-04-03T01:32:46;5.63;;;2.95;;
44248;SDS011;29923;48.718;9.272;2023-04-03T01:35:11;8.35;;;2.95;;
44248;SDS011;29923;48.718;9.272;2023-04-03T01:37:37;4.95;;;2.85;;
44248;SDS011;29923;48.718;9.272;2023-04-03T01:40:02;3.92;;;2.63;;
44248;SDS011;29923;48.718;9.272;2023-04-03T01:42:28;5.18;;;2.83;;
44248;SDS011;29923;48.718;9.272;2023-04-03T01:44:54;7.70;;;3.10;;
44248;SDS011;29923;48.718;9.272;2023-04-03T01:47:20;3.75;;;2.60;;
44248;SDS011;29923;48.718;9.272;2023-04-03T01:49:46;7.38;;;3.17;;
44248;SDS011;29923;48.718;9.272;2023-04-03T01:52:11;5.07;;;3.03;;
44248;SDS011;29923;48.718;9.272;2023-04-03T01:54:37;6.70;;;2.92;;
44248;SDS011;29923;48.718;9.272;2023-04-03T01:57:02;3.97;;;2.58;;
44248;SDS011;29923;48.718;9.272;2023-04-03T01:59:28;5.97;;;2.95;;
44248;SDS011;29923;48.718;9.272;2023-04-03T02:01:53;9.70;;;2.67;;
44248;SDS011;29923;48.718;9.272;2023-04-03T02:04:18;3.88;;;2.78;;
44248;SDS011;29923;48.718;9.272;2023-04-03T02:06:44;4.80;;;2.88;;
44248;SDS011;29923;48.718;9.272;2023-04-03T02:09:09;4.50;;;2.30;;
44248;SDS011;29923;48.718;9.272;2023-04-03T02:11:35;3.58;;;2.40;;
44248;SDS011;29923;48.718;9.272;2023-04-03T02:14:00;3.90;;;2.75;;
44248;SDS011;29923;48.718;9.272;2023-04-03T02:16:25;5.20;;;2.92;;
44248;SDS011;29923;48.718;9.272;2023-04-03T02:18:51;5.00;;;2.70;;
44248;SDS011;29923;48.718;9.272;2023-04-03T02:21:16;2.97;;;2.10;;
44248;SDS011;29923;48.718;9.272;2023-04-03T02:23:41;4.97;;;2.72;;
44248;SDS011;29923;48.718;9.272;2023-04-03T02:26:08;4.90;;;2.92;;
44248;SDS011;29923;48.718;9.272;2023-04-03T02:28:35;3.67;;;2.70;;
44248;SDS011;29923;48.718;9.272;2023-04-03T02:31:01;7.60;;;3.55;;
44248;SDS011;29923;48.718;9.272;2023-04-03T02:33:27;4.45;;;2.72;;
44248;SDS011;29923;48.718;9.272;2023-04-03T02:35:53;11.57;;;3.25;;
44248;SDS011;29923;48.718;9.272;2023-04-03T02:38:19;5.47;;;2.78;;
44248;SDS011;29923;48.718;9.272;2023-04-03T02:40:44;4.97;;;2.80;;
44248;SDS011;29923;48.718;9.272;2023-04-03T02:43:10;3.78;;;2.72;;
44248;SDS011;29923;48.718;9.272;2023-04-03T02:45:35;8.00;;;2.88;;
44248;SDS011;29923;48.718;9.272;2023-04-03T02:48:00;4.80;;;2.65;;
44248;SDS011;29923;48.718;9.272;2023-04-03T02:50:26;6.40;;;3.22;;
44248;SDS011;29923;48.718;9.272;2023-04-03T02:52:51;3.03;;;2.55;;
44248;SDS011;29923;48.718;9.272;2023-04-03T02:55:16;5.70;;;2.83;;
44248;SDS011;29923;48.718;9.272;2023-04-03T02:57:42;6.47;;;2.92;;
44248;SDS011;29923;48.718;9.272;2023-04-03T03:00:07;5.85;;;2.83;;
44248;SDS011;29923;48.718;9.272;2023-04-03T03:02:34;5.38;;;2.65;;
44248;SDS011;29923;48.718;9.272;2023-04-03T03:05:00;5.32;;;2.90;;
44248;SDS011;29923;48.718;9.272;2023-04-03T03:07:25;5.10;;;2.65;;
44248;SDS011;29923;48.718;9.272;2023-04-03T03:09:51;4.60;;;2.85;;
44248;SDS011;29923;48.718;9.272;2023-04-03T03:12:16;9.73;;;3.00;;
44248;SDS011;29923;48.718;9.272;2023-04-03T03:14:46;8.60;;;3.03;;
44248;SDS011;29923;48.718;9.272;2023-04-03T03:17:11;4.90;;;2.53;;
44248;SDS011;29923;48.718;9.272;2023-04-03T03:19:37;4.57;;;2.65;;
44248;SDS011;29923;48.718;9.272;2023-04-03T03:22:02;3.75;;;2.40;;
44248;SDS011;29923;48.718;9.272;2023-04-03T03:24:27;7.43;;;2.92;;
44248;SDS011;29923;48.718;9.272;2023-04-03T03:26:53;3.85;;;2.42;;
44248;SDS011;29923;48.718;9.272;2023-04-03T03:29:18;6.38;;;2.70;;
44248;SDS011;29923;48.718;9.272;2023-04-03T03:31:44;4.28;;;2.40;;
44248;SDS011;29923;48.718;9.272;2023-04-03T03:34:09;4.43;;;2.60;;
44248;SDS011;29923;48.718;9.272;2023-04-03T03:36:35;4.18;;;2.28;;
44248;SDS011;29923;48.718;9.272;2023-04-03T03:39:01;3.92;;;2.80;;
44248;SDS011;29923;48.718;9.272;2023-04-03T03:41:26;5.32;;;2.78;;
44248;SDS011;29923;48.718;9.272;2023-04-03T03:43:52;4.80;;;2.00;;
44248;SDS011;29923;48.718;9.272;2023-04-03T03:46:17;4.07;;;2.58;;
44248;SDS011;29923;48.718;9.272;2023-04-03T03:48:42;5.20;;;2.60;;
44248;SDS011;29923;48.718;9.272;2023-04-03T03:51:08;10.65;;;3.67;;
44248;SDS011;29923;48.718;9.272;2023-04-03T03:53:33;5.35;;;2.35;;
44248;SDS011;29923;48.718;9.272;2023-04-03T03:55:59;5.25;;;2.53;;
44248;SDS011;29923;48.718;9.272;2023-04-03T03:58:24;6.70;;;2.70;;
44248;SDS011;29923;48.718;9.272;2023-04-03T04:00:50;4.95;;;2.97;;
44248;SDS011;29923;48.718;9.272;2023-04-03T04:03:15;3.33;;;2.05;;
44248;SDS011;29923;48.718;9.272;2023-04-03T04:05:41;4.85;;;2.25;;
44248;SDS011;29923;48.718;9.272;2023-04-03T04:08:06;8.05;;;2.60;;
44248;SDS011;29923;48.718;9.272;2023-04-03T04:10:32;5.57;;;2.70;;
44248;SDS011;29923;48.718;9.272;2023-04-03T04:12:57;3.65;;;2.47;;
44248;SDS011;29923;48.718;9.272;2023-04-03T04:15:23;5.28;;;2.50;;
44248;SDS011;29923;48.718;9.272;2023-04-03T04:17:50;4.63;;;2.40;;
44248;SDS011;29923;48.718;9.272;2023-04-03T04:20:15;6.97;;;2.40;;
44248;SDS011;29923;48.718;9.272;2023-04-03T04:22:41;4.68;;;2.35;;
44248;SDS011;29923;48.718;9.272;2023-04-03T04:25:06;4.75;;;2.45;;
44248;SDS011;29923;48.718;9.272;2023-04-03T04:27:32;6.85;;;2.72;;
44248;SDS011;29923;48.718;9.272;2023-04-03T04:29:57;2.65;;;2.13;;
44248;SDS011;29923;48.718;9.272;2023-04-03T04:32:23;4.78;;;2.75;;
44248;SDS011;29923;48.718;9.272;2023-04-03T04:34:48;5.00;;;2.75;;
44248;SDS011;29923;48.718;9.272;2023-04-03T04:37:13;4.72;;;2.40;;
44248;SDS011;29923;48.718;9.272;2023-04-03T04:39:39;4.05;;;2.40;;
44248;SDS011;29923;48.718;9.272;2023-04-03T04:42:04;4.55;;;2.60;;
44248;SDS011;29923;48.718;9.272;2023-04-03T04:44:29;4.60;;;2.17;;
44248;SDS011;29923;48.718;9.272;2023-04-03T04:46:55;4.85;;;2.60;;
44248;SDS011;29923;48.718;9.272;2023-04-03T04:49:20;5.72;;;2.10;;
44248;SDS011;29923;48.718;9.272;2023-04-03T04:51:45;3.50;;;2.58;;
44248;SDS011;29923;48.718;9.272;2023-04-03T04:54:11;4.07;;;2.15;;
44248;SDS011;29923;48.718;9.272;2023-04-03T04:56:36;3.10;;;2.08;;
44248;SDS011;29923;48.718;9.272;2023-04-03T04:59:01;4.22;;;2.50;;
44248;SDS011;29923;48.718;9.272;2023-04-03T05:01:27;2.75;;;2.42;;
44248;SDS011;29923;48.718;9.272;2023-04-03T05:03:52;7.25;;;2.40;;
44248;SDS011;29923;48.718;9.272;2023-04-03T05:06:18;6.72;;;2.28;;
44248;SDS011;29923;48.718;9.272;2023-04-03T05:08:43;3.88;;;2.38;;
44248;SDS011;29923;48.718;9.272;2023-04-03T05:11:09;4.63;;;2.15;;
44248;SDS011;29923;48.718;9.272;2023-04-03T05:13:34;4.10;;;2.17;;
44248;SDS011;29923;48.718;9.272;2023-04-03T05:16:00;6.05;;;2.30;;
44248;SDS011;29923;48.718;9.272;2023-04-03T05:18:25;4.88;;;2.10;;
44248;SDS011;29923;48.718;9.272;2023-04-03T05:20:51;5.05;;;2.30;;
44248;SDS011;29923;48.718;9.272;2023-04-03T05:23:16;5.60;;;2.10;;
44248;SDS011;29923;48.718;9.272;2023-04-03T05:25:42;3.25;;;2.10;;
44248;SDS011;29923;48.718;9.272;2023-04-03T05:28:10;4.18;;;2.05;;
44248;SDS011;29923;48.718;9.272;2023-04-03T05:30:35;3.63;;;2.22;;
44248;SDS011;29923;48.718;9.272;2023-04-03T05:33:01;4.85;;;2.38;;
44248;SDS011;29923;48.718;9.272;2023-04-03T05:35:26;5.13;;;2.40;;
44248;SDS011;29923;48.718;9.272;2023-04-03T05:37:51;4.10;;;2.28;;
44248;SDS011;29923;48.718;9.272;2023-04-03T05:40:17;3.78;;;2.03;;
44248;SDS011;29923;48.718;9.272;2023-04-03T05:42:43;9.02;;;1.90;;
44248;SDS011;29923;48.718;9.272;2023-04-03T05:45:09;5.95;;;2.83;;
44248;SDS011;29923;48.718;9.272;2023-04-03T05:47:35;5.20;;;2.28;;
44248;SDS011;29923;48.718;9.272;2023-04-03T05:50:00;3.90;;;2.33;;
44248;SDS011;29923;48.718;9.272;2023-04-03T05:52:27;3.72;;;2.40;;
44248;SDS011;29923;48.718;9.272;2023-04-03T05:54:58;3.10;;;2.25;;
44248;SDS011;29923;48.718;9.272;2023-04-03T05:57:23;6.05;;;2.20;;
44248;SDS011;29923;48.718;9.272;2023-04-03T05:59:49;4.40;;;2.30;;
44248;SDS011;29923;48.718;9.272;2023-04-03T06:02:15;3.78;;;2.40;;
44248;SDS011;29923;48.718;9.272;2023-04-03T06:04:42;4.55;;;2.60;;
44248;SDS011;29923;48.718;9.272;2023-04-03T06:07:12;3.72;;;2.10;;
44248;SDS011;29923;48.718;9.272;2023-04-03T06:09:39;4.10;;;2.10;;
44248;SDS011;29923;48.718;9.272;2023-04-03T06:12:04;4.65;;;2.00;;
44248;SDS011;29923;48.718;9.272;2023-04-03T06:14:30;5.07;;;2.05;;
44248;SDS011;29923;48.718;9.272;2023-04-03T06:16:55;5.70;;;2.10;;
44248;SDS011;29923;48.718;9.272;2023-04-03T06:19:21;2.63;;;2.15;;
44248;SDS011;29923;48.718;9.272;2023-04-03T06:21:47;3.53;;;2.22;;
44248;SDS011;29923;48.718;9.272;2023-04-03T06:24:14;5.18;;;2.30;;
44248;SDS011;29923;48.718;9.272;2023-04-03T06:26:40;7.88;;;2.00;;
44248;SDS011;29923;48.718;9.272;2023-04-03T06:29:07;4.90;;;2.10;;
44248;SDS011;29923;48.718;9.272;2023-04-03T06:31:32;2.88;;;2.50;;
44248;SDS011;29923;48.718;9.272;2023-04-03T06:33:58;3.85;;;2.00;;
44248;SDS011;29923;48.718;9.272;2023-04-03T06:36:23;4.93;;;2.25;;
44248;SDS011;29923;48.718;9.272;2023-04-03T06:38:49;4.65;;;2.17;;
44248;SDS011;29923;48.718;9.272;2023-04-03T06:41:15;3.95;;;2.63;;
44248;SDS011;29923;48.718;9.272;2023-04-03T06:43:41;3.97;;;1.92;;
44248;SDS011;29923;48.718;9.272;2023-04-03T06:46:10;6.40;;;3.00;;
44248;SDS011;29923;48.718;9.272;2023-04-03T06:48:38;3.83;;;2.22;;
44248;SDS011;29923;48.718;9.272;2023-04-03T06:51:04;5.70;;;2.67;;
44248;SDS011;29923;48.718;9.272;2023-04-03T06:53:30;5.20;;;2.28;;
44248;SDS011;29923;48.718;9.272;2023-04-03T06:55:56;6.13;;;2.60;;
44248;SDS011;29923;48.718;9.272;2023-04-03T06:58:21;4.82;;;2.42;;
44248;SDS011;29923;48.718;9.272;2023-04-03T07:00:47;6.38;;;1.83;;
44248;SDS011;29923;48.718;9.272;2023-04-03T07:03:12;4.90;;;2.05;;
44248;SDS011;29923;48.718;9.272;2023-04-03T07:05:37;4.22;;;2.10;;
44248;SDS011;29923;48.718;9.272;2023-04-03T07:08:03;4.32;;;2.05;;
44248;SDS011;29923;48.718;9.272;2023-04-03T07:10:28;4.30;;;2.40;;
44248;SDS011;29923;48.718;9.272;2023-04-03T07:12:53;5.40;;;2.17;;
44248;SDS011;29923;48.718;9.272;2023-04-03T07:15:19;4.15;;;2.08;;
44248;SDS011;29923;48.718;9.272;2023-04-03T07:17:44;5.57;;;2.67;;
44248;SDS011;29923;48.718;9.272;2023-04-03T07:20:09;7.43;;;2.58;;
44248;SDS011;29923;48.718;9.272;2023-04-03T07:22:36;6.85;;;2.47;;
44248;SDS011;29923;48.718;9.272;2023-04-03T07:25:01;6.72;;;2.45;;
44248;SDS011;29923;48.718;9.272;2023-04-03T07:27:27;5.70;;;2.03;;
44248;SDS011;29923;48.718;9.272;2023-04-03T07:29:52;4.40;;;2.30;;
44248;SDS011;29923;48.718;9.272;2023-04-03T07:32:18;3.72;;;2.08;;
44248;SDS011;29923;48.718;9.272;2023-04-03T07:34:43;6.22;;;2.17;;
44248;SDS011;29923;48.718;9.272;2023-04-03T07:37:09;5.15;;;2.10;;
44248;SDS011;29923;48.718;9.272;2023-04-03T07:39:35;6.18;;;2.50;;
44248;SDS011;29923;48.718;9.272;2023-04-03T07:42:00;5.97;;;2.72;;
44248;SDS011;29923;48.718;9.272;2023-04-03T07:44:26;4.50;;;2.55;;
44248;SDS011;29923;48.718;9.272;2023-04-03T07:46:52;4.47;;;2.40;;
44248;SDS011;29923;48.718;9.272;2023-04-03T07:49:17;6.10;;;2.28;;
44248;SDS011;29923;48.718;9.272;2023-04-03T07:51:43;6.45;;;2.90;;
44248;SDS011;29923;48.718;9.272;2023-04-03T07:54:09;3.53;;;2.20;;
44248;SDS011;29923;48.718;9.272;2023-04-03T07:56:35;8.65;;;2.70;;
44248;SDS011;29923;48.718;9.272;2023-04-03T07:59:00;4.95;;;1.92;;
44248;SDS011;29923;48.718;9.272;2023-04-03T08:01:26;5.28;;;2.60;;
44248;SDS011;29923;48.718;9.272;2023-04-03T08:03:51;6.18;;;2.03;;
44248;SDS011;29923;48.718;9.272;2023-04-03T08:06:17;8.02;;;2.83;;
44248;SDS011;29923;48.718;9.272;2023-04-03T08:08:42;7.72;;;2.72;;
44248;SDS011;29923;48.718;9.272;2023-04-03T08:11:09;5.70;;;2.55;;
44248;SDS011;29923;48.718;9.272;2023-04-03T08:13:35;5.03;;;2.60;;
44248;SDS011;29923;48.718;9.272;2023-04-03T08:16:14;5.72;;;2.08;;
44248;SDS011;29923;48.718;9.272;2023-04-03T08:18:41;6.72;;;2.88;;
44248;SDS011;29923;48.718;9.272;2023-04-03T08:21:10;5.45;;;3.00;;
44248;SDS011;29923;48.718;9.272;2023-04-03T08:23:37;7.20;;;2.45;;
44248;SDS011;29923;48.718;9.272;2023-04-03T08:26:07;7.53;;;3.15;;
44248;SDS011;29923;48.718;9.272;2023-04-03T08:28:33;5.72;;;2.60;;
44248;SDS011;29923;48.718;9.272;2023-04-03T08:31:02;5.63;;;2.60;;
44248;SDS011;29923;48.718;9.272;2023-04-03T08:33:30;6.75;;;2.53;;
44248;SDS011;29923;48.718;9.272;2023-04-03T08:35:56;5.63;;;2.67;;
44248;SDS011;29923;48.718;9.272;2023-04-03T08:38:21;5.18;;;2.88;;
44248;SDS011;29923;48.718;9.272;2023-04-03T08:40:47;5.13;;;2.22;;
44248;SDS011;29923;48.718;9.272;2023-04-03T08:43:19;5.35;;;2.65;;
44248;SDS011;29923;48.718;9.272;2023-04-03T08:45:56;6.82;;;2.17;;
44248;SDS011;29923;48.718;9.272;2023-04-03T08:48:24;8.82;;;2.58;;
44248;SDS011;29923;48.718;9.272;2023-04-03T08:51:15;4.57;;;2.40;;
44248;SDS011;29923;48.718;9.272;2023-04-03T08:53:41;6.28;;;2.40;;
44248;SDS011;29923;48.718;9.272;2023-04-03T08:56:21;5.35;;;2.33;;
44248;SDS011;29923;48.718;9.272;2023-04-03T08:58:49;5.80;;;2.55;;
44248;SDS011;29923;48.718;9.272;2023-04-03T09:04:01;3.55;;;2.22;;
44248;SDS011;29923;48.718;9.272;2023-04-03T09:06:31;8.45;;;2.70;;
44248;SDS011;29923;48.718;9.272;2023-04-03T09:14:28;7.13;;;2.17;;
44248;SDS011;29923;48.718;9.272;2023-04-03T09:17:09;5.68;;;2.83;;
44248;SDS011;29923;48.718;9.272;2023-04-03T09:22:44;5.00;;;2.20;;
44248;SDS011;29923;48.718;9.272;2023-04-03T09:25:13;5.82;;;2.35;;
44248;SDS011;29923;48.718;9.272;2023-04-03T09:27:41;4.50;;;2.15;;
44248;SDS011;29923;48.718;9.272;2023-04-03T09:30:28;16.95;;;3.30;;
44248;SDS011;29923;48.718;9.272;2023-04-03T09:32:54;3.63;;;2.05;;
44248;SDS011;29923;48.718;9.272;2023-04-03T09:35:28;4.40;;;2.13;;
44248;SDS011;29923;48.718;9.272;2023-04-03T09:37:59;8.20;;;2.20;;
44248;SDS011;29923;48.718;9.272;2023-04-03T09:46:28;4.85;;;1.88;;
44248;SDS011;29923;48.718;9.272;2023-04-03T09:49:01;4.35;;;2.30;;
44248;SDS011;29923;48.718;9.272;2023-04-03T09:51:28;4.65;;;2.25;;
44248;SDS011;29923;48.718;9.272;2023-04-03T09:53:55;8.70;;;2.40;;
44248;SDS011;29923;48.718;9.272;2023-04-03T09:56:25;7.25;;;2.22;;
44248;SDS011;29923;48.718;9.272;2023-04-03T10:01:36;3.60;;;1.27;;
44248;SDS011;29923;48.718;9.272;2023-04-03T10:06:31;4.38;;;1.95;;
44248;SDS011;29923;48.718;9.272;2023-04-03T10:08:59;7.28;;;3.03;;
44248;SDS011;29923;48.718;9.272;2023-04-03T10:11:25;3.75;;;1.80;;
44248;SDS011;29923;48.718;9.272;2023-04-03T10:13:52;6.38;;;1.90;;
44248;SDS011;29923;48.718;9.272;2023-04-03T10:16:20;4.55;;;2.22;;
44248;SDS011;29923;48.718;9.272;2023-04-03T10:24:26;3.90;;;1.70;;
44248;SDS011;29923;48.718;9.272;2023-04-03T10:26:57;4.78;;;1.80;;
44248;SDS011;29923;48.718;9.272;2023-04-03T10:29:27;3.30;;;1.60;;
44248;SDS011;29923;48.718;9.272;2023-04-03T10:32:02;4.00;;;1.60;;
44248;SDS011;29923;48.718;9.272;2023-04-03T10:34:37;3.78;;;1.98;;
44248;SDS011;29923;48.718;9.272;2023-04-03T10:45:19;2.97;;;1.75;;
44248;SDS011;29923;48.718;9.272;2023-04-03T10:51:09;3.45;;;1.60;;
44248;SDS011;29923;48.718;9.272;2023-04-03T10:56:51;2.35;;;1.77;;
44248;SDS011;29923;48.718;9.272;2023-04-03T10:59:33;4.22;;;2.00;;
44248;SDS011;29923;48.718;9.272;2023-04-03T11:07:37;4.15;;;1.92;;
44248;SDS011;29923;48.718;9.272;2023-04-03T11:10:48;5.53;;;2.30;;
44248;SDS011;29923;48.718;9.272;2023-04-03T11:13:08;4.28;;;1.90;;
44248;SDS011;29923;48.718;9.272;2023-04-03T11:15:39;4.55;;;1.95;;
44248;SDS011;29923;48.718;9.272;2023-04-03T11:18:15;3.95;;;1.70;;
44248;SDS011;29923;48.718;9.272;2023-04-03T11:20:53;3.92;;;1.55;;
44248;SDS011;29923;48.718;9.272;2023-04-03T11:23:24;7.72;;;1.60;;
44248;SDS011;29923;48.718;9.272;2023-04-03T11:25:51;3.78;;;1.48;;
44248;SDS011;29923;48.718;9.272;2023-04-03T11:28:18;4.43;;;1.73;;
44248;SDS011;29923;48.718;9.272;2023-04-03T11:36:00;2.85;;;1.33;;
44248;SDS011;29923;48.718;9.272;2023-04-03T11:38:30;3.70;;;1.60;;
44248;SDS011;29923;48.718;9.272;2023-04-03T11:41:01;3.28;;;1.60;;
44248;SDS011;29923;48.718;9.272;2023-04-03T11:43:29;5.70;;;1.77;;
44248;SDS011;29923;48.718;9.272;2023-04-03T11:53:38;3.60;;;1.45;;
44248;SDS011;29923;48.718;9.272;2023-04-03T11:59:14;7.70;;;1.98;;
44248;SDS011;29923;48.718;9.272;2023-04-03T12:01:46;3.25;;;1.67;;
44248;SDS011;29923;48.718;9.272;2023-04-03T12:04:16;4.10;;;1.58;;
44248;SDS011;29923;48.718;9.272;2023-04-03T12:06:49;4.85;;;1.98;;
44248;SDS011;29923;48.718;9.272;2023-04-03T12:09:34;3.22;;;1.52;;
44248;SDS011;29923;48.718;9.272;2023-04-03T12:14:51;2.67;;;1.50;;
44248;SDS011;29923;48.718;9.272;2023-04-03T12:17:20;8.23;;;2.03;;
44248;SDS011;29923;48.718;9.272;2023-04-03T12:19:51;4.60;;;1.75;;
44248;SDS011;29923;48.718;9.272;2023-04-03T12:22:17;4.15;;;1.60;;
44248;SDS011;29923;48.718;9.272;2023-04-03T12:24:46;5.22;;;2.00;;
44248;SDS011;29923;48.718;9.272;2023-04-03T12:46:28;5.00;;;1.92;;
44248;SDS011;29923;48.718;9.272;2023-04-03T12:49:22;6.40;;;1.90;;
44248;SDS011;29923;48.718;9.272;2023-04-03T12:51:55;4.50;;;1.77;;
44248;SDS011;29923;48.718;9.272;2023-04-03T12:54:36;4.65;;;1.58;;
44248;SDS011;29923;48.718;9.272;2023-04-03T12:57:18;6.05;;;2.20;;
44248;SDS011;29923;48.718;9.272;2023-04-03T12:59:44;4.30;;;2.03;;
44248;SDS011;29923;48.718;9.272;2023-04-03T13:04:43;5.70;;;1.90;;
44248;SDS011;29923;48.718;9.272;2023-04-03T13:07:18;4.07;;;1.90;;
44248;SDS011;29923;48.718;9.272;2023-04-03T13:09:59;3.60;;;1.65;;
44248;SDS011;29923;48.718;9.272;2023-04-03T13:12:28;3.30;;;1.80;;
44248;SDS011;29923;48.718;9.272;2023-04-03T13:14:58;5.30;;;1.70;;
44248;SDS011;29923;48.718;9.272;2023-04-03T13:17:26;6.40;;;1.95;;
44248;SDS011;29923;48.718;9.272;2023-04-03T13:19:52;2.88;;;1.75;;
44248;SDS011;29923;48.718;9.272;2023-04-03T13:22:23;3.63;;;1.50;;
44248;SDS011;29923;48.718;9.272;2023-04-03T13:24:52;4.47;;;1.83;;
44248;SDS011;29923;48.718;9.272;2023-04-03T13:27:19;3.40;;;1.60;;
44248;SDS011;29923;48.718;9.272;2023-04-03T13:29:48;3.08;;;1.85;;
44248;SDS011;29923;48.718;9.272;2023-04-03T13:32:18;4.60;;;2.00;;
44248;SDS011;29923;48.718;9.272;2023-04-03T13:34:45;4.13;;;1.60;;
44248;SDS011;29923;48.718;9.272;2023-04-03T13:37:19;5.68;;;1.75;;
44248;SDS011;29923;48.718;9.272;2023-04-03T13:39:55;5.78;;;1.65;;
44248;SDS011;29923;48.718;9.272;2023-04-03T13:42:26;7.53;;;1.60;;
44248;SDS011;29923;48.718;9.272;2023-04-03T13:47:49;2.58;;;1.50;;
44248;SDS011;29923;48.718;9.272;2023-04-03T13:52:51;4.47;;;1.80;;
44248;SDS011;29923;48.718;9.272;2023-04-03T13:55:26;3.00;;;1.67;;
44248;SDS011;29923;48.718;9.272;2023-04-03T14:03:11;4.07;;;2.28;;
44248;SDS011;29923;48.718;9.272;2023-04-03T14:05:38;3.88;;;1.95;;
44248;SDS011;29923;48.718;9.272;2023-04-03T14:08:03;6.97;;;1.63;;
44248;SDS011;29923;48.718;9.272;2023-04-03T14:10:29;5.43;;;2.78;;
44248;SDS011;29923;48.718;9.272;2023-04-03T14:12:55;4.25;;;1.88;;
44248;SDS011;29923;48.718;9.272;2023-04-03T14:15:25;3.00;;;1.55;;
44248;SDS011;29923;48.718;9.272;2023-04-03T14:17:53;5.05;;;2.28;;
44248;SDS011;29923;48.718;9.272;2023-04-03T14:20:21;3.70;;;1.65;;
44248;SDS011;29923;48.718;9.272;2023-04-03T14:22:48;3.75;;;1.90;;
44248;SDS011;29923;48.718;9.272;2023-04-03T14:25:15;4.93;;;1.70;;
44248;SDS011;29923;48.718;9.272;2023-04-03T14:27:45;9.68;;;2.03;;
44248;SDS011;29923;48.718;9.272;2023-04-03T14:30:33;3.22;;;1.83;;
44248;SDS011;29923;48.718;9.272;2023-04-03T14:32:58;6.38;;;1.95;;
44248;SDS011;29923;48.718;9.272;2023-04-03T14:35:25;4.57;;;1.92;;
44248;SDS011;29923;48.718;9.272;2023-04-03T14:37:51;3.60;;;1.95;;
44248;SDS011;29923;48.718;9.272;2023-04-03T14:40:19;2.90;;;1.77;;
44248;SDS011;29923;48.718;9.272;2023-04-03T14:42:47;4.20;;;1.80;;
44248;SDS011;29923;48.718;9.272;2023-04-03T14:45:14;5.63;;;2.00;;
44248;SDS011;29923;48.718;9.272;2023-04-03T14:47:50;8.60;;;2.53;;
44248;SDS011;29923;48.718;9.272;2023-04-03T14:50:19;6.00;;;2.17;;
44248;SDS011;29923;48.718;9.272;2023-04-03T14:52:47;4.05;;;1.83;;
44248;SDS011;29923;48.718;9.272;2023-04-03T14:55:18;5.57;;;1.65;;
44248;SDS011;29923;48.718;9.272;2023-04-03T14:57:45;3.53;;;1.90;;
44248;SDS011;29923;48.718;9.272;2023-04-03T15:00:12;4.70;;;1.85;;
44248;SDS011;29923;48.718;9.272;2023-04-03T15:02:39;6.43;;;2.25;;
44248;SDS011;29923;48.718;9.272;2023-04-03T15:05:05;6.25;;;2.25;;
44248;SDS011;29923;48.718;9.272;2023-04-03T15:07:37;3.50;;;1.92;;
44248;SDS011;29923;48.718;9.272;2023-04-03T15:13:01;3.08;;;1.80;;
44248;SDS011;29923;48.718;9.272;2023-04-03T15:15:28;6.00;;;1.48;;
44248;SDS011;29923;48.718;9.272;2023-04-03T15:17:55;2.40;;;1.60;;
44248;SDS011;29923;48.718;9.272;2023-04-03T15:20:23;5.10;;;2.28;;
44248;SDS011;29923;48.718;9.272;2023-04-03T15:22:50;3.50;;;1.60;;
44248;SDS011;29923;48.718;9.272;2023-04-03T15:25:15;5.88;;;1.98;;
44248;SDS011;29923;48.718;9.272;2023-04-03T15:27:41;5.95;;;1.90;;
44248;SDS011;29923;48.718;9.272;2023-04-03T15:30:08;7.93;;;1.90;;
44248;SDS011;29923;48.718;9.272;2023-04-03T15:32:36;5.35;;;1.60;;
44248;SDS011;29923;48.718;9.272;2023-04-03T15:35:02;6.38;;;2.17;;
44248;SDS011;29923;48.718;9.272;2023-04-03T15:37:27;4.20;;;2.00;;
44248;SDS011;29923;48.718;9.272;2023-04-03T15:39:53;2.83;;;1.90;;
44248;SDS011;29923;48.718;9.272;2023-04-03T15:42:18;3.67;;;1.70;;
44248;SDS011;29923;48.718;9.272;2023-04-03T15:44:44;4.45;;;2.05;;
44248;SDS011;29923;48.718;9.272;2023-04-03T15:47:09;4.85;;;2.22;;
44248;SDS011;29923;48.718;9.272;2023-04-03T15:49:35;5.13;;;1.80;;
44248;SDS011;29923;48.718;9.272;2023-04-03T15:52:00;6.18;;;1.90;;
44248;SDS011;29923;48.718;9.272;2023-04-03T15:54:26;4.05;;;1.60;;
44248;SDS011;29923;48.718;9.272;2023-04-03T15:56:52;4.13;;;1.90;;
44248;SDS011;29923;48.718;9.272;2023-04-03T15:59:18;5.78;;;2.10;;
44248;SDS011;29923;48.718;9.272;2023-04-03T16:01:43;3.30;;;1.58;;
44248;SDS011;29923;48.718;9.272;2023-04-03T16:04:09;5.68;;;1.75;;
44248;SDS011;29923;48.718;9.272;2023-04-03T16:06:35;3.47;;;1.77;;
44248;SDS011;29923;48.718;9.272;2023-04-03T16:09:01;3.25;;;1.58;;
44248;SDS011;29923;48.718;9.272;2023-04-03T16:11:27;4.45;;;1.58;;
44248;SDS011;29923;48.718;9.272;2023-04-03T16:13:53;4.45;;;1.75;;
44248;SDS011;29923;48.718;9.272;2023-04-03T16:16:18;4.72;;;2.03;;
44248;SDS011;29923;48.718;9.272;2023-04-03T16:18:44;7.32;;;1.70;;
44248;SDS011;29923;48.718;9.272;2023-04-03T16:21:11;3.85;;;1.95;;
44248;SDS011;29923;48.718;9.272;2023-04-03T16:23:38;4.50;;;1.45;;
44248;SDS011;29923;48.718;9.272;2023-04-03T16:26:04;7.18;;;2.38;;
44248;SDS011;29923;48.718;9.272;2023-04-03T16:28:29;3.95;;;2.28;;
44248;SDS011;29923;48.718;9.272;2023-04-03T16:30:55;2.40;;;1.75;;
44248;SDS011;29923;48.718;9.272;2023-04-03T16:33:20;3.65;;;1.80;;
44248;SDS011;29923;48.718;9.272;2023-04-03T16:35:47;3.60;;;1.58;;
44248;SDS011;29923;48.718;9.272;2023-04-03T16:38:13;3.35;;;2.00;;
44248;SDS011;29923;48.718;9.272;2023-04-03T16:40:40;5.22;;;2.22;;